createdAt,value
2019-05-22T00:01:00.650Z,12.36
2019-05-22T00:03:40.327Z,12.33
2019-05-22T00:06:09.589Z,12.45
2019-05-22T00:08:43.482Z,12.51
2019-05-22T00:11:13.787Z,12.53
2019-05-22T00:13:45.050Z,12.48
2019-05-22T00:16:15.248Z,12.48
2019-05-22T00:18:44.992Z,12.39
2019-05-22T00:21:15.810Z,12.36
2019-05-22T00:23:47.153Z,12.34
2019-05-22T00:26:16.857Z,12.36
2019-05-22T00:28:47.386Z,12.40
2019-05-22T00:31:18.396Z,12.38
2019-05-22T00:33:47.557Z,12.39
2019-05-22T00:36:17.826Z,12.40
2019-05-22T00:38:48.154Z,12.40
2019-05-22T00:41:19.441Z,12.42
2019-05-22T00:43:51.741Z,12.45
2019-05-22T00:46:21.317Z,12.46
2019-05-22T00:48:52.203Z,12.48
2019-05-22T00:51:29.712Z,12.51
2019-05-22T00:54:00.592Z,12.49
2019-05-22T00:56:31.463Z,12.44
2019-05-22T00:59:05.326Z,12.41
2019-05-22T01:01:38.920Z,12.36
2019-05-22T01:04:09.863Z,12.42
2019-05-22T01:06:39.645Z,12.42
2019-05-22T01:09:10.737Z,12.43
2019-05-22T01:11:41.556Z,12.44
2019-05-22T01:14:12.371Z,12.38
2019-05-22T01:16:42.889Z,12.39
2019-05-22T01:19:13.235Z,12.43
2019-05-22T01:21:42.488Z,12.42
2019-05-22T01:24:13.211Z,12.35
2019-05-22T01:26:43.758Z,12.36
2019-05-22T01:29:13.842Z,12.45
2019-05-22T01:31:44.666Z,12.38
2019-05-22T01:34:15.539Z,12.52
2019-05-22T01:36:49.276Z,12.53
2019-05-22T01:39:25.811Z,12.56
2019-05-22T01:41:57.369Z,12.61
2019-05-22T01:44:28.397Z,12.68
2019-05-22T01:47:00.627Z,12.69
2019-05-22T01:49:31.351Z,12.68
2019-05-22T01:52:01.163Z,12.58
2019-05-22T01:54:30.407Z,12.52
2019-05-22T01:57:04.761Z,12.46
2019-05-22T01:59:35.661Z,12.43
2019-05-22T02:02:06.966Z,12.47
2019-05-22T02:04:39.249Z,12.38
2019-05-22T02:07:09.483Z,12.43
2019-05-22T02:09:40.860Z,12.32
2019-05-22T02:12:17.827Z,12.38
2019-05-22T02:14:50.438Z,12.33
2019-05-22T02:17:23.942Z,12.28
2019-05-22T02:19:53.267Z,12.24
2019-05-22T02:22:23.577Z,12.26
2019-05-22T02:24:53.188Z,12.29
2019-05-22T02:27:24.119Z,12.35
2019-05-22T02:29:55.444Z,12.33
2019-05-22T02:32:25.666Z,12.35
2019-05-22T02:34:56.774Z,12.41
2019-05-22T02:37:27.209Z,12.31
2019-05-22T02:39:56.641Z,12.34
2019-05-22T02:42:29.874Z,12.41
2019-05-22T02:45:00.618Z,12.45
2019-05-22T02:47:30.443Z,12.47
2019-05-22T02:50:00.167Z,12.49
2019-05-22T02:52:29.980Z,12.48
2019-05-22T02:54:59.610Z,12.57
2019-05-22T02:57:30.630Z,12.63
2019-05-22T03:00:00.809Z,12.59
2019-05-22T03:02:32.385Z,12.52
2019-05-22T03:05:09.533Z,12.47
2019-05-22T03:07:41.353Z,12.52
2019-05-22T03:10:13.466Z,12.49
2019-05-22T03:12:45.531Z,12.39
2019-05-22T03:15:17.982Z,12.44
2019-05-22T03:17:47.830Z,12.41
2019-05-22T03:20:23.206Z,12.33
2019-05-22T03:22:58.757Z,12.31
2019-05-22T03:25:30.137Z,12.42
2019-05-22T03:27:59.851Z,12.43
2019-05-22T03:30:34.692Z,12.41
2019-05-22T03:33:07.728Z,12.43
2019-05-22T03:35:42.482Z,12.39
2019-05-22T03:38:12.271Z,12.38
2019-05-22T03:40:41.758Z,12.42
2019-05-22T03:43:15.101Z,12.37
2019-05-22T03:45:44.714Z,12.29
2019-05-22T03:48:15.218Z,12.25
2019-05-22T03:50:44.406Z,12.17
2019-05-22T03:53:19.383Z,12.23
2019-05-22T03:55:49.017Z,12.31
2019-05-22T03:58:18.866Z,12.35
2019-05-22T04:00:52.145Z,12.42
2019-05-22T04:03:21.315Z,12.48
2019-05-22T04:05:52.651Z,12.46
2019-05-22T04:08:24.117Z,12.53
2019-05-22T04:10:56.761Z,12.47
2019-05-22T04:13:25.870Z,12.46
2019-05-22T04:15:56.050Z,12.47
2019-05-22T04:18:27.359Z,12.47
2019-05-22T04:20:58.892Z,12.46
2019-05-22T04:23:28.154Z,12.48
2019-05-22T04:25:58.984Z,12.51
2019-05-22T04:28:30.168Z,12.51
2019-05-22T04:31:00.645Z,12.50
2019-05-22T04:33:30.882Z,12.50
2019-05-22T04:36:01.651Z,12.42
2019-05-22T04:38:31.346Z,12.42
2019-05-22T04:41:03.554Z,12.43
2019-05-22T04:43:34.043Z,12.46
2019-05-22T04:46:06.372Z,12.51
2019-05-22T04:48:37.870Z,12.39
2019-05-22T04:51:28.992Z,12.48
2019-05-22T04:53:58.652Z,12.48
2019-05-22T04:56:28.774Z,12.40
2019-05-22T04:58:59.340Z,12.45
2019-05-22T05:01:28.747Z,12.34
2019-05-22T05:03:58.767Z,12.48
2019-05-22T05:06:29.607Z,12.41
2019-05-22T05:08:59.127Z,12.38
2019-05-22T05:11:28.293Z,12.40
2019-05-22T05:13:57.615Z,12.42
2019-05-22T05:16:26.786Z,12.39
2019-05-22T05:18:56.059Z,12.42
2019-05-22T05:21:25.493Z,12.39
2019-05-22T05:23:55.049Z,12.34
2019-05-22T05:26:26.065Z,12.32
2019-05-22T05:28:55.706Z,12.38
2019-05-22T05:31:25.645Z,12.51
2019-05-22T05:34:00.714Z,12.52
2019-05-22T05:36:30.355Z,12.61
2019-05-22T05:39:00.178Z,12.65
2019-05-22T05:41:29.926Z,12.62
2019-05-22T05:43:59.757Z,12.57
2019-05-22T05:46:28.950Z,12.57
2019-05-22T05:48:58.231Z,12.47
2019-05-22T05:51:30.362Z,12.58
2019-05-22T05:54:06.373Z,12.65
2019-05-22T05:56:37.614Z,12.73
2019-05-22T05:59:07.543Z,12.66
2019-05-22T06:01:39.630Z,12.67
2019-05-22T06:04:09.810Z,12.62
2019-05-22T06:06:42.097Z,12.59
2019-05-22T06:09:14.628Z,12.67
2019-05-22T06:11:48.963Z,12.76
2019-05-22T06:14:28.277Z,12.86
2019-05-22T06:17:13.997Z,12.88
2019-05-22T06:19:52.351Z,12.84
2019-05-22T06:22:21.620Z,12.92
2019-05-22T06:24:57.309Z,12.96
2019-05-22T06:27:35.905Z,13.05
2019-05-22T06:30:10.149Z,13.10
2019-05-22T06:33:01.965Z,13.04
2019-05-22T06:35:35.209Z,13.01
2019-05-22T06:38:22.002Z,13.09
2019-05-22T06:40:51.450Z,13.24
2019-05-22T06:43:27.674Z,13.55
2019-05-22T06:45:57.316Z,13.97
2019-05-22T06:48:26.968Z,13.96
2019-05-22T06:50:57.328Z,14.36
2019-05-22T06:53:26.581Z,14.56
2019-05-22T06:55:55.914Z,15.01
2019-05-22T06:58:25.726Z,15.18
2019-05-22T07:00:56.220Z,15.17
2019-05-22T07:03:25.428Z,15.02
2019-05-22T07:05:54.617Z,14.89
2019-05-22T07:08:24.056Z,15.06
2019-05-22T07:11:11.591Z,15.09
2019-05-22T07:13:41.213Z,15.40
2019-05-22T07:16:11.244Z,16.12
2019-05-22T07:18:41.579Z,16.37
2019-05-22T07:21:10.938Z,15.98
2019-05-22T07:23:40.096Z,15.76
2019-05-22T07:26:10.413Z,15.57
2019-05-22T07:28:39.688Z,15.46
2019-05-22T07:31:09.171Z,16.04
2019-05-22T07:33:38.587Z,15.85
2019-05-22T07:36:12.119Z,15.85
2019-05-22T07:38:40.182Z,15.72
2019-05-22T07:41:09.445Z,15.95
2019-05-22T07:43:41.738Z,16.97
2019-05-22T07:46:09.776Z,16.57
2019-05-22T07:48:39.086Z,16.38
2019-05-22T07:51:10.100Z,15.88
2019-05-22T07:53:40.449Z,16.01
2019-05-22T07:56:10.128Z,16.21
2019-05-22T07:58:39.969Z,16.26
2019-05-22T08:01:09.559Z,16.26
2019-05-22T08:03:40.802Z,16.25
2019-05-22T08:06:10.149Z,16.16
2019-05-22T08:08:41.804Z,15.88
2019-05-22T08:11:12.229Z,15.85
2019-05-22T08:13:43.517Z,15.89
2019-05-22T08:16:13.602Z,15.95
2019-05-22T08:18:42.905Z,16.02
2019-05-22T08:21:12.187Z,15.99
2019-05-22T08:23:42.093Z,16.21
2019-05-22T08:26:12.917Z,16.26
2019-05-22T08:28:42.222Z,16.29
2019-05-22T08:31:13.041Z,16.45
2019-05-22T08:33:42.554Z,16.32
2019-05-22T08:36:11.919Z,16.24
2019-05-22T08:38:44.588Z,16.22
2019-05-22T08:41:15.948Z,16.32
2019-05-22T08:44:15.517Z,16.40
2019-05-22T08:46:17.846Z,16.52
2019-05-22T08:48:49.235Z,16.52
2019-05-22T08:51:21.457Z,16.58
2019-05-22T08:54:09.927Z,16.47
2019-05-22T08:56:41.389Z,16.29
2019-05-22T08:59:19.599Z,16.33
2019-05-22T09:01:42.403Z,16.28
2019-05-22T09:04:11.674Z,16.35
2019-05-22T09:06:41.432Z,16.44
2019-05-22T09:09:10.665Z,16.46
2019-05-22T09:11:39.840Z,16.47
2019-05-22T09:14:09.091Z,16.34
2019-05-22T09:16:38.283Z,16.28
2019-05-22T09:19:07.574Z,16.35
2019-05-22T09:21:40.569Z,16.36
2019-05-22T09:24:13.692Z,16.49
2019-05-22T09:26:42.972Z,16.53
2019-05-22T09:29:12.159Z,16.53
2019-05-22T09:31:41.754Z,16.43
2019-05-22T09:34:11.107Z,16.49
2019-05-22T09:36:40.565Z,16.53
2019-05-22T09:39:11.980Z,16.72
2019-05-22T09:41:41.307Z,16.97
2019-05-22T09:44:10.551Z,17.02
2019-05-22T09:46:39.810Z,16.97
2019-05-22T09:49:10.993Z,16.91
2019-05-22T09:51:40.203Z,16.99
2019-05-22T09:54:09.740Z,17.19
2019-05-22T09:56:38.995Z,17.30
2019-05-22T09:59:08.318Z,17.40
2019-05-22T10:01:37.509Z,17.41
2019-05-22T10:04:08.015Z,17.45
2019-05-22T10:06:37.261Z,17.53
2019-05-22T10:09:08.365Z,17.47
2019-05-22T10:11:37.916Z,17.36
2019-05-22T10:14:07.269Z,17.40
2019-05-22T10:16:37.501Z,17.42
2019-05-22T10:19:07.013Z,17.65
2019-05-22T10:21:37.032Z,17.80
2019-05-22T10:24:07.255Z,17.82
2019-05-22T10:26:36.708Z,17.79
2019-05-22T10:29:06.355Z,17.70
2019-05-22T10:31:35.607Z,17.76
2019-05-22T10:34:04.879Z,17.89
2019-05-22T10:36:34.533Z,17.80
2019-05-22T10:39:05.391Z,17.81
2019-05-22T10:41:34.663Z,17.80
2019-05-22T10:44:05.053Z,17.82
2019-05-22T10:46:34.302Z,17.77
2019-05-22T10:49:03.828Z,17.78
2019-05-22T10:51:32.998Z,17.86
2019-05-22T10:54:02.891Z,17.81
2019-05-22T10:56:32.706Z,17.76
2019-05-22T10:59:02.031Z,17.77
2019-05-22T11:01:32.024Z,17.79
2019-05-22T11:04:01.829Z,17.90
2019-05-22T11:06:31.474Z,17.94
2019-05-22T11:09:00.686Z,17.93
2019-05-22T11:11:30.313Z,17.77
2019-05-22T11:14:02.216Z,17.61
2019-05-22T11:16:32.306Z,17.53
2019-05-22T11:19:02.715Z,17.49
2019-05-22T11:21:32.973Z,17.44
2019-05-22T11:24:02.230Z,17.62
2019-05-22T11:26:32.001Z,17.66
2019-05-22T11:29:01.454Z,17.67
2019-05-22T11:31:31.149Z,17.76
2019-05-22T11:34:00.399Z,17.83
2019-05-22T11:36:29.856Z,17.82
2019-05-22T11:38:59.252Z,17.80
2019-05-22T11:41:28.505Z,17.94
2019-05-22T11:43:57.767Z,17.98
2019-05-22T11:46:27.312Z,17.97
2019-05-22T11:48:56.493Z,18.06
2019-05-22T11:51:25.858Z,18.02
2019-05-22T11:54:08.847Z,18.00
2019-05-22T11:56:26.064Z,18.10
2019-05-22T11:58:55.337Z,17.98
2019-05-22T12:01:25.362Z,17.94
2019-05-22T12:03:55.267Z,17.98
2019-05-22T12:06:25.215Z,17.98
2019-05-22T12:08:55.332Z,17.95
2019-05-22T12:11:24.687Z,17.91
2019-05-22T12:13:54.643Z,17.79
2019-05-22T12:16:24.643Z,17.68
2019-05-22T12:18:54.255Z,17.56
2019-05-22T12:21:23.524Z,17.47
2019-05-22T12:23:52.775Z,17.59
2019-05-22T12:26:23.213Z,17.52
2019-05-22T12:28:52.397Z,17.50
2019-05-22T12:31:21.652Z,17.46
2019-05-22T12:33:51.418Z,17.46
2019-05-22T12:36:21.789Z,17.46
2019-05-22T12:38:51.818Z,17.46
2019-05-22T12:41:21.263Z,17.52
2019-05-22T12:43:51.776Z,17.43
2019-05-22T12:46:22.005Z,17.49
2019-05-22T12:48:51.723Z,17.53
2019-05-22T12:51:21.555Z,17.57
2019-05-22T12:53:52.704Z,17.49
2019-05-22T12:56:22.334Z,17.47
2019-05-22T12:58:52.117Z,17.45
2019-05-22T13:01:22.063Z,17.51
2019-05-22T13:03:52.306Z,17.54
2019-05-22T13:06:21.564Z,17.52
2019-05-22T13:08:51.362Z,17.56
2019-05-22T13:11:21.102Z,17.52
2019-05-22T13:13:50.760Z,17.32
2019-05-22T13:16:20.307Z,17.22
2019-05-22T13:18:50.859Z,17.26
2019-05-22T13:21:23.110Z,17.24
2019-05-22T13:23:53.435Z,17.34
2019-05-22T13:26:24.361Z,17.28
2019-05-22T13:28:55.183Z,17.35
2019-05-22T13:31:24.684Z,17.44
2019-05-22T13:33:54.881Z,17.40
2019-05-22T13:36:24.126Z,17.38
2019-05-22T13:38:53.865Z,17.30
2019-05-22T13:41:23.113Z,17.31
2019-05-22T13:43:52.716Z,17.25
2019-05-22T13:46:21.952Z,17.19
2019-05-22T13:48:51.477Z,17.26
2019-05-22T13:51:21.321Z,17.29
2019-05-22T13:53:52.006Z,17.26
2019-05-22T13:56:25.228Z,17.35
2019-05-22T13:58:54.195Z,17.45
2019-05-22T14:01:23.993Z,17.48
2019-05-22T14:03:53.984Z,17.49
2019-05-22T14:06:24.017Z,17.50
2019-05-22T14:08:53.440Z,17.47
2019-05-22T14:11:23.407Z,17.43
2019-05-22T14:13:54.194Z,17.33
2019-05-22T14:16:23.735Z,17.40
2019-05-22T14:18:53.005Z,17.31
2019-05-22T14:21:22.286Z,17.34
2019-05-22T14:23:51.705Z,17.36
2019-05-22T14:26:20.945Z,17.33
2019-05-22T14:28:51.058Z,17.28
2019-05-22T14:31:26.309Z,17.35
2019-05-22T14:33:55.483Z,17.31
2019-05-22T14:36:24.739Z,17.37
2019-05-22T14:38:54.721Z,17.21
2019-05-22T14:41:24.212Z,17.17
2019-05-22T14:43:53.544Z,17.24
2019-05-22T14:46:22.857Z,17.02
2019-05-22T14:48:52.388Z,17.11
2019-05-22T14:51:23.280Z,17.17
2019-05-22T14:53:54.934Z,17.20
2019-05-22T14:56:25.457Z,17.29
2019-05-22T14:58:55.840Z,17.30
2019-05-22T15:01:25.309Z,17.32
2019-05-22T15:03:55.314Z,17.50
2019-05-22T15:06:24.651Z,17.48
2019-05-22T15:08:54.190Z,17.55
2019-05-22T15:11:23.940Z,17.42
2019-05-22T15:13:53.273Z,17.45
2019-05-22T15:16:22.823Z,17.57
2019-05-22T15:18:52.293Z,17.60
2019-05-22T15:21:21.906Z,17.62
2019-05-22T15:23:52.051Z,17.67
2019-05-22T15:26:21.720Z,17.50
2019-05-22T15:28:51.949Z,17.39
2019-05-22T15:31:21.412Z,17.49
2019-05-22T15:33:51.156Z,17.59
2019-05-22T15:36:22.841Z,17.57
2019-05-22T15:38:53.117Z,17.54
2019-05-22T15:41:23.552Z,17.42
2019-05-22T15:43:54.008Z,17.32
2019-05-22T15:46:24.755Z,17.29
2019-05-22T15:48:54.873Z,17.20
2019-05-22T15:51:27.134Z,17.21
2019-05-22T15:54:00.426Z,17.22
2019-05-22T15:56:31.760Z,17.28
2019-05-22T15:59:05.176Z,17.30
2019-05-22T16:01:36.847Z,17.24
2019-05-22T16:04:10.004Z,17.24
2019-05-22T16:06:39.881Z,17.32
2019-05-22T16:09:13.219Z,17.32
2019-05-22T16:11:44.216Z,17.29
2019-05-22T16:14:14.841Z,17.38
2019-05-22T16:16:45.920Z,17.41
2019-05-22T16:19:15.282Z,17.51
2019-05-22T16:21:47.307Z,17.49
2019-05-22T16:24:17.150Z,17.36
2019-05-22T16:26:46.821Z,17.28
2019-05-22T16:29:16.948Z,17.21
2019-05-22T16:31:47.280Z,17.17
2019-05-22T16:34:17.723Z,17.22
2019-05-22T16:36:47.492Z,17.11
2019-05-22T16:39:17.729Z,17.07
2019-05-22T16:41:47.335Z,17.06
2019-05-22T16:44:17.259Z,17.01
2019-05-22T16:46:46.941Z,17.03
2019-05-22T16:49:17.784Z,17.01
2019-05-22T16:51:48.626Z,17.01
2019-05-22T16:54:20.912Z,17.05
2019-05-22T16:56:49.690Z,17.14
2019-05-22T16:59:20.505Z,17.00
2019-05-22T17:02:00.088Z,16.97
2019-05-22T17:04:21.229Z,17.03
2019-05-22T17:06:51.330Z,16.92
2019-05-22T17:09:21.780Z,16.93
2019-05-22T17:11:52.522Z,16.91
2019-05-22T17:14:23.669Z,16.88
2019-05-22T17:16:53.099Z,17.02
2019-05-22T17:19:27.406Z,16.98
2019-05-22T17:21:54.542Z,16.94
2019-05-22T17:24:24.960Z,17.02
2019-05-22T17:26:56.167Z,17.06
2019-05-22T17:29:27.352Z,16.99
2019-05-22T17:31:56.868Z,16.99
2019-05-22T17:34:35.052Z,17.02
2019-05-22T17:37:08.315Z,16.86
2019-05-22T17:39:40.923Z,16.85
2019-05-22T17:42:13.574Z,16.90
2019-05-22T17:44:46.177Z,16.97
2019-05-22T17:47:17.536Z,16.97
2019-05-22T17:49:46.968Z,16.99
2019-05-22T17:52:17.891Z,17.01
2019-05-22T17:54:51.089Z,17.00
2019-05-22T17:57:22.274Z,16.98
2019-05-22T17:59:52.678Z,16.99
2019-05-22T18:02:23.675Z,16.93
2019-05-22T18:04:52.914Z,16.97
2019-05-22T18:07:22.768Z,17.02
2019-05-22T18:09:51.938Z,16.97
2019-05-22T18:12:22.013Z,16.91
2019-05-22T18:14:51.196Z,16.86
2019-05-22T18:17:20.457Z,16.80
2019-05-22T18:19:49.779Z,16.81
2019-05-22T18:22:19.869Z,16.87
2019-05-22T18:24:49.682Z,16.93
2019-05-22T18:27:19.009Z,16.90
2019-05-22T18:29:48.206Z,16.85
2019-05-22T18:32:17.659Z,16.84
2019-05-22T18:34:46.909Z,16.87
2019-05-22T18:37:16.096Z,16.81
2019-05-22T18:39:45.275Z,16.80
2019-05-22T18:42:14.630Z,16.77
2019-05-22T18:44:43.814Z,16.83
2019-05-22T18:47:13.271Z,16.88
2019-05-22T18:49:42.469Z,16.86
2019-05-22T18:52:11.654Z,16.91
2019-05-22T18:54:40.841Z,16.95
2019-05-22T18:57:10.491Z,16.93
2019-05-22T18:59:39.938Z,16.95
2019-05-22T19:02:09.608Z,16.95
2019-05-22T19:04:44.693Z,16.94
2019-05-22T19:07:14.159Z,16.91
2019-05-22T19:09:43.406Z,16.93
2019-05-22T19:12:12.658Z,16.88
2019-05-22T19:14:41.840Z,16.90
2019-05-22T19:17:11.378Z,16.85
2019-05-22T19:19:40.665Z,16.91
2019-05-22T19:22:09.842Z,16.89
2019-05-22T19:24:39.012Z,16.83
2019-05-22T19:27:08.192Z,16.83
2019-05-22T19:29:37.752Z,16.86
2019-05-22T19:32:07.016Z,16.86
2019-05-22T19:34:36.356Z,16.80
2019-05-22T19:37:05.612Z,16.79
2019-05-22T19:39:36.794Z,16.79
2019-05-22T19:42:07.741Z,16.78
2019-05-22T19:44:37.027Z,16.74
2019-05-22T19:47:07.728Z,16.72
2019-05-22T19:49:37.076Z,16.70
2019-05-22T19:52:07.493Z,16.75
2019-05-22T19:54:36.805Z,16.71
2019-05-22T19:57:06.348Z,16.70
2019-05-22T19:59:35.530Z,16.69
2019-05-22T20:02:05.532Z,16.64
2019-05-22T20:04:35.424Z,16.66
2019-05-22T20:07:07.054Z,16.60
2019-05-22T20:09:36.704Z,16.60
2019-05-22T20:12:07.376Z,16.56
2019-05-22T20:14:37.272Z,16.59
2019-05-22T20:17:06.448Z,16.59
2019-05-22T20:19:36.894Z,16.55
2019-05-22T20:22:06.552Z,16.54
2019-05-22T20:24:36.071Z,16.55
2019-05-22T20:27:09.374Z,16.55
2019-05-22T20:29:36.887Z,16.56
2019-05-22T20:32:07.818Z,16.47
2019-05-22T20:34:37.238Z,16.43
2019-05-22T20:37:06.691Z,16.41
2019-05-22T20:39:38.517Z,16.41
2019-05-22T20:42:09.122Z,16.38
2019-05-22T20:44:39.112Z,16.42
2019-05-22T20:47:10.702Z,16.42
2019-05-22T20:49:42.219Z,16.40
2019-05-22T20:52:12.891Z,16.34
2019-05-22T20:54:43.307Z,16.33
2019-05-22T20:57:12.849Z,16.35
2019-05-22T20:59:44.172Z,16.34
2019-05-22T21:02:14.960Z,16.35
2019-05-22T21:04:46.649Z,16.32
2019-05-22T21:07:18.871Z,16.30
2019-05-22T21:09:48.123Z,16.28
2019-05-22T21:12:19.025Z,16.27
2019-05-22T21:14:48.212Z,16.23
2019-05-22T21:17:19.088Z,16.18
2019-05-22T21:19:48.845Z,16.23
2019-05-22T21:22:19.657Z,16.23
2019-05-22T21:24:49.773Z,16.19
2019-05-22T21:27:19.001Z,16.15
2019-05-22T21:29:48.176Z,16.16
2019-05-22T21:32:19.045Z,16.16
2019-05-22T21:34:48.313Z,16.08
2019-05-22T21:37:18.706Z,16.19
2019-05-22T21:39:48.421Z,16.18
2019-05-22T21:42:18.071Z,16.15
2019-05-22T21:44:47.278Z,16.11
2019-05-22T21:47:16.425Z,16.12
2019-05-22T21:49:45.682Z,16.05
2019-05-22T21:52:15.740Z,16.03
2019-05-22T21:54:46.410Z,15.98
2019-05-22T21:57:17.139Z,15.95
2019-05-22T21:59:46.311Z,15.85
2019-05-22T22:02:20.177Z,15.84
2019-05-22T22:04:50.286Z,15.82
2019-05-22T22:07:21.146Z,15.84
2019-05-22T22:09:50.985Z,15.82
2019-05-22T22:12:23.242Z,15.88
2019-05-22T22:14:52.593Z,15.88
2019-05-22T22:17:23.813Z,15.86
2019-05-22T22:19:53.956Z,15.86
2019-05-22T22:22:27.010Z,15.83
2019-05-22T22:24:56.399Z,15.81
2019-05-22T22:27:25.906Z,15.81
2019-05-22T22:29:55.730Z,15.82
2019-05-22T22:32:26.543Z,15.81
2019-05-22T22:34:55.717Z,15.70
2019-05-22T22:37:26.422Z,15.75
2019-05-22T22:39:56.855Z,15.71
2019-05-22T22:42:41.594Z,15.75
2019-05-22T22:45:24.451Z,15.75
2019-05-22T22:47:54.890Z,15.69
2019-05-22T22:50:25.940Z,15.66
2019-05-22T22:52:58.386Z,15.67
2019-05-22T22:55:29.826Z,15.66
2019-05-22T22:58:16.031Z,15.65
2019-05-22T23:00:34.110Z,15.66
2019-05-22T23:03:04.249Z,15.69
2019-05-22T23:05:35.543Z,15.67
2019-05-22T23:08:06.023Z,15.66
2019-05-22T23:10:35.360Z,15.72
2019-05-22T23:13:06.995Z,15.67
2019-05-22T23:15:37.840Z,15.71
2019-05-22T23:18:41.263Z,15.76
2019-05-22T23:21:09.363Z,15.72
2019-05-22T23:23:37.750Z,15.70
2019-05-22T23:26:08.634Z,15.69
2019-05-22T23:28:40.735Z,15.67
2019-05-22T23:31:11.646Z,15.71
2019-05-22T23:33:40.991Z,15.76
2019-05-22T23:36:12.053Z,15.65
2019-05-22T23:38:43.003Z,15.66
2019-05-22T23:41:13.803Z,15.66
2019-05-22T23:43:44.790Z,15.59
2019-05-22T23:46:14.713Z,15.60
2019-05-22T23:48:44.833Z,15.69
2019-05-22T23:51:14.145Z,15.68
2019-05-22T23:53:45.223Z,15.59
2019-05-22T23:56:16.269Z,15.50
2019-05-22T23:58:52.643Z,15.59
